createdAt,value
2018-09-02T18:22:26.065Z,4.05
2018-09-02T18:26:30.990Z,3.77
2018-09-02T18:30:34.737Z,4.25
2018-09-02T18:34:39.330Z,4.58
2018-09-02T18:38:43.121Z,4.15
2018-09-02T18:42:46.872Z,4.20
2018-09-02T18:46:51.570Z,4.28
2018-09-02T18:50:55.543Z,4.50
2018-09-02T18:54:59.252Z,4.60
2018-09-02T18:59:05.117Z,4.17
2018-09-02T19:03:09.581Z,4.50
2018-09-02T19:07:18.139Z,4.33
2018-09-02T19:11:22.622Z,4.40
2018-09-02T19:15:26.459Z,4.47
2018-09-02T19:19:29.979Z,3.90
2018-09-02T19:23:41.230Z,4.30
2018-09-02T19:27:44.870Z,3.83
2018-09-02T19:31:48.594Z,3.40
2018-09-02T19:35:53.366Z,4.20
2018-09-02T19:39:57.903Z,6.13
2018-09-02T19:44:04.227Z,4.40
2018-09-02T19:48:07.830Z,4.03
2018-09-02T19:52:11.506Z,3.97
2018-09-02T19:56:16.219Z,3.97
2018-09-02T20:00:19.922Z,4.12
2018-09-02T20:04:24.780Z,3.90
2018-09-02T20:08:30.002Z,4.20
2018-09-02T20:12:37.513Z,4.43
2018-09-02T20:16:41.112Z,4.23
2018-09-02T20:20:44.885Z,5.90
2018-09-02T20:24:48.663Z,5.03
2018-09-02T20:28:53.453Z,4.60
2018-09-02T20:32:58.340Z,5.30
2018-09-02T20:37:02.172Z,5.87
2018-09-02T20:41:06.250Z,4.83
2018-09-02T20:45:10.498Z,5.47
2018-09-02T20:49:15.553Z,5.43
2018-09-02T20:53:19.226Z,5.70
2018-09-02T20:57:22.785Z,6.27
2018-09-02T21:01:26.479Z,6.70
2018-09-02T21:05:30.113Z,6.37
2018-09-02T21:09:33.827Z,5.87
2018-09-02T21:13:38.151Z,5.53
2018-09-02T21:17:42.273Z,5.67
2018-09-02T21:21:45.844Z,5.50
2018-09-02T21:25:49.582Z,5.03
2018-09-02T21:29:53.202Z,4.33
2018-09-02T21:33:57.011Z,4.40
2018-09-02T21:38:02.558Z,4.20
2018-09-02T21:42:06.121Z,2.97
2018-09-02T21:46:09.793Z,2.00
2018-09-02T21:50:13.910Z,1.80
2018-09-02T21:54:17.606Z,1.70
2018-09-02T21:58:22.321Z,1.87
2018-09-02T22:02:25.953Z,1.67
2018-09-02T22:06:30.682Z,1.10
2018-09-02T22:10:34.360Z,1.30
2018-09-02T22:14:38.110Z,1.50
2018-09-02T22:18:41.747Z,1.00
2018-09-02T22:22:45.450Z,1.23
2018-09-02T22:26:49.041Z,1.10
2018-09-02T22:30:52.625Z,0.90
2018-09-02T22:34:56.183Z,1.10
2018-09-02T22:38:59.774Z,1.00
2018-09-02T22:43:03.382Z,1.10
2018-09-02T22:47:07.278Z,1.10
2018-09-02T22:51:11.183Z,1.07
2018-09-02T22:55:14.773Z,1.40
2018-09-02T22:59:18.370Z,1.30
2018-09-02T23:03:21.962Z,1.30
2018-09-02T23:07:26.138Z,1.00
2018-09-02T23:11:29.795Z,1.40
2018-09-02T23:15:33.461Z,1.30
2018-09-02T23:19:37.144Z,1.50
2018-09-02T23:23:40.879Z,1.50
2018-09-02T23:27:44.579Z,1.43
2018-09-02T23:31:48.275Z,1.53
2018-09-02T23:35:52.356Z,1.50
2018-09-02T23:39:55.894Z,1.60
2018-09-02T23:43:59.579Z,1.60
2018-09-02T23:48:03.098Z,1.60
2018-09-02T23:52:06.828Z,1.63
2018-09-02T23:56:10.518Z,1.70
